sim
Sign-in with your pilot id or email,
or register
Callsign
Passwort

Schedule Details

Flight Number: DLH2419
Departure: Stockholm Arlanda Airport (ESSA) at 17:25
Arrival: Munich Airport (EDDM) at 19:35
Route: Lufthansa Passenger Schedule. Enter filed route here before submitting Pirep.

Weather Information
Getting current METAR information for ESSA 231550Z 20008KT CAVOK 17/10 Q1001 NOSIG
Getting current METAR information for EDDM 231550Z 27006KT 9999 FEW040 19/14 Q1009 NOSIG

Schedule Frequency

Route Map